sensor_id;sensor_type;location;lat;lon;timestamp;temperature;humidity
11043;DHT22;5574;48.786;10.120;2024-03-06T00:00:52;6.10;99.90
11043;DHT22;5574;48.786;10.120;2024-03-06T00:03:19;6.10;99.90
11043;DHT22;5574;48.786;10.120;2024-03-06T00:05:47;6.20;99.90
11043;DHT22;5574;48.786;10.120;2024-03-06T00:08:14;6.20;99.90
11043;DHT22;5574;48.786;10.120;2024-03-06T00:10:41;6.10;99.90
11043;DHT22;5574;48.786;10.120;2024-03-06T00:13:08;6.10;99.90
11043;DHT22;5574;48.786;10.120;2024-03-06T00:15:35;6.00;99.90
11043;DHT22;5574;48.786;10.120;2024-03-06T00:18:01;6.00;99.90
11043;DHT22;5574;48.786;10.120;2024-03-06T00:20:29;6.00;99.90
11043;DHT22;5574;48.786;10.120;2024-03-06T00:22:57;6.00;99.90
11043;DHT22;5574;48.786;10.120;2024-03-06T00:25:24;5.90;99.90
11043;DHT22;5574;48.786;10.120;2024-03-06T00:27:51;6.00;99.90
11043;DHT22;5574;48.786;10.120;2024-03-06T00:30:19;6.00;99.90
11043;DHT22;5574;48.786;10.120;2024-03-06T00:32:46;6.00;99.90
11043;DHT22;5574;48.786;10.120;2024-03-06T00:35:12;6.00;99.90
11043;DHT22;5574;48.786;10.120;2024-03-06T00:37:39;6.10;99.90
11043;DHT22;5574;48.786;10.120;2024-03-06T00:40:08;6.20;99.90
11043;DHT22;5574;48.786;10.120;2024-03-06T00:42:35;6.10;99.90
11043;DHT22;5574;48.786;10.120;2024-03-06T00:45:02;6.20;99.90
11043;DHT22;5574;48.786;10.120;2024-03-06T00:47:29;6.20;99.90
11043;DHT22;5574;48.786;10.120;2024-03-06T00:49:55;6.20;99.90
11043;DHT22;5574;48.786;10.120;2024-03-06T00:52:23;6.20;99.90
11043;DHT22;5574;48.786;10.120;2024-03-06T00:54:49;6.20;99.90
11043;DHT22;5574;48.786;10.120;2024-03-06T00:57:17;6.20;99.90
11043;DHT22;5574;48.786;10.120;2024-03-06T00:59:44;6.20;99.90
11043;DHT22;5574;48.786;10.120;2024-03-06T01:02:11;6.20;99.90
11043;DHT22;5574;48.786;10.120;2024-03-06T01:04:37;6.10;99.90
11043;DHT22;5574;48.786;10.120;2024-03-06T01:07:04;6.10;99.90
11043;DHT22;5574;48.786;10.120;2024-03-06T01:09:30;6.20;99.90
11043;DHT22;5574;48.786;10.120;2024-03-06T01:11:57;6.10;99.90
11043;DHT22;5574;48.786;10.120;2024-03-06T01:14:24;6.10;99.90
11043;DHT22;5574;48.786;10.120;2024-03-06T01:16:51;6.10;99.90
11043;DHT22;5574;48.786;10.120;2024-03-06T01:19:17;6.10;99.90
11043;DHT22;5574;48.786;10.120;2024-03-06T01:21:44;6.10;99.90
11043;DHT22;5574;48.786;10.120;2024-03-06T01:24:11;6.10;99.90
11043;DHT22;5574;48.786;10.120;2024-03-06T01:26:37;6.20;99.90
11043;DHT22;5574;48.786;10.120;2024-03-06T01:29:05;6.20;99.90
11043;DHT22;5574;48.786;10.120;2024-03-06T01:31:33;6.20;99.90
11043;DHT22;5574;48.786;10.120;2024-03-06T01:34:00;6.20;99.90
11043;DHT22;5574;48.786;10.120;2024-03-06T01:36:27;6.20;99.90
11043;DHT22;5574;48.786;10.120;2024-03-06T01:38:54;6.20;99.90
11043;DHT22;5574;48.786;10.120;2024-03-06T01:41:20;6.30;99.90
11043;DHT22;5574;48.786;10.120;2024-03-06T01:43:47;6.20;99.90
11043;DHT22;5574;48.786;10.120;2024-03-06T01:46:14;6.30;99.90
11043;DHT22;5574;48.786;10.120;2024-03-06T01:48:42;6.30;99.90
11043;DHT22;5574;48.786;10.120;2024-03-06T01:51:09;6.30;99.90
11043;DHT22;5574;48.786;10.120;2024-03-06T01:53:36;6.30;99.90
11043;DHT22;5574;48.786;10.120;2024-03-06T01:56:04;6.20;99.90
11043;DHT22;5574;48.786;10.120;2024-03-06T01:58:31;6.20;99.90
11043;DHT22;5574;48.786;10.120;2024-03-06T02:00:59;6.20;99.90
11043;DHT22;5574;48.786;10.120;2024-03-06T02:03:26;6.20;99.90
11043;DHT22;5574;48.786;10.120;2024-03-06T02:05:54;6.20;99.90
11043;DHT22;5574;48.786;10.120;2024-03-06T02:08:23;6.10;99.90
11043;DHT22;5574;48.786;10.120;2024-03-06T02:10:50;6.10;99.90
11043;DHT22;5574;48.786;10.120;2024-03-06T02:13:16;6.10;99.90
11043;DHT22;5574;48.786;10.120;2024-03-06T02:15:45;6.10;99.90
11043;DHT22;5574;48.786;10.120;2024-03-06T02:18:11;6.10;99.90
11043;DHT22;5574;48.786;10.120;2024-03-06T02:20:39;6.10;99.90
11043;DHT22;5574;48.786;10.120;2024-03-06T02:23:06;6.10;99.90
11043;DHT22;5574;48.786;10.120;2024-03-06T02:25:33;6.10;99.90
11043;DHT22;5574;48.786;10.120;2024-03-06T02:28:00;6.10;99.90
11043;DHT22;5574;48.786;10.120;2024-03-06T02:30:26;6.20;99.90
11043;DHT22;5574;48.786;10.120;2024-03-06T02:32:53;6.10;99.90
11043;DHT22;5574;48.786;10.120;2024-03-06T02:35:19;6.10;99.90
11043;DHT22;5574;48.786;10.120;2024-03-06T02:37:47;6.10;99.90
11043;DHT22;5574;48.786;10.120;2024-03-06T02:40:14;6.20;99.90
11043;DHT22;5574;48.786;10.120;2024-03-06T02:42:41;6.20;99.90
11043;DHT22;5574;48.786;10.120;2024-03-06T02:45:08;6.20;99.90
11043;DHT22;5574;48.786;10.120;2024-03-06T02:47:35;6.20;99.90
11043;DHT22;5574;48.786;10.120;2024-03-06T02:50:01;6.20;99.90
11043;DHT22;5574;48.786;10.120;2024-03-06T02:52:28;6.20;99.90
11043;DHT22;5574;48.786;10.120;2024-03-06T02:54:56;6.10;99.90
11043;DHT22;5574;48.786;10.120;2024-03-06T02:57:26;6.10;99.90
11043;DHT22;5574;48.786;10.120;2024-03-06T02:59:53;6.00;99.90
11043;DHT22;5574;48.786;10.120;2024-03-06T03:02:19;6.10;99.90
11043;DHT22;5574;48.786;10.120;2024-03-06T03:04:46;6.10;99.90
11043;DHT22;5574;48.786;10.120;2024-03-06T03:07:13;6.10;99.90
11043;DHT22;5574;48.786;10.120;2024-03-06T03:09:39;6.10;99.90
11043;DHT22;5574;48.786;10.120;2024-03-06T03:12:08;6.10;99.90
11043;DHT22;5574;48.786;10.120;2024-03-06T03:14:36;6.10;99.90
11043;DHT22;5574;48.786;10.120;2024-03-06T03:17:03;6.10;99.90
11043;DHT22;5574;48.786;10.120;2024-03-06T03:19:30;6.10;99.90
11043;DHT22;5574;48.786;10.120;2024-03-06T03:21:57;6.10;99.90
11043;DHT22;5574;48.786;10.120;2024-03-06T03:24:24;6.10;99.90
11043;DHT22;5574;48.786;10.120;2024-03-06T03:26:52;6.10;99.90
11043;DHT22;5574;48.786;10.120;2024-03-06T03:29:20;6.10;99.90
11043;DHT22;5574;48.786;10.120;2024-03-06T03:31:47;6.10;99.90
11043;DHT22;5574;48.786;10.120;2024-03-06T03:34:13;6.10;99.90
11043;DHT22;5574;48.786;10.120;2024-03-06T03:36:40;6.00;99.90
11043;DHT22;5574;48.786;10.120;2024-03-06T03:39:07;6.10;99.90
11043;DHT22;5574;48.786;10.120;2024-03-06T03:41:42;6.10;99.90
11043;DHT22;5574;48.786;10.120;2024-03-06T03:44:08;6.10;99.90
11043;DHT22;5574;48.786;10.120;2024-03-06T03:46:36;6.10;99.90
11043;DHT22;5574;48.786;10.120;2024-03-06T03:49:03;6.00;99.90
11043;DHT22;5574;48.786;10.120;2024-03-06T03:51:30;6.10;99.90
11043;DHT22;5574;48.786;10.120;2024-03-06T03:53:57;6.00;99.90
11043;DHT22;5574;48.786;10.120;2024-03-06T03:56:23;6.00;99.90
11043;DHT22;5574;48.786;10.120;2024-03-06T03:58:50;6.00;99.90
11043;DHT22;5574;48.786;10.120;2024-03-06T04:01:17;6.10;99.90
11043;DHT22;5574;48.786;10.120;2024-03-06T04:03:45;6.00;99.90
11043;DHT22;5574;48.786;10.120;2024-03-06T04:06:11;6.00;99.90
11043;DHT22;5574;48.786;10.120;2024-03-06T04:08:38;6.00;99.90
11043;DHT22;5574;48.786;10.120;2024-03-06T04:11:04;6.10;99.90
11043;DHT22;5574;48.786;10.120;2024-03-06T04:13:35;6.00;99.90
11043;DHT22;5574;48.786;10.120;2024-03-06T04:16:03;6.00;99.90
11043;DHT22;5574;48.786;10.120;2024-03-06T04:18:31;6.00;99.90
11043;DHT22;5574;48.786;10.120;2024-03-06T04:21:02;6.10;99.90
11043;DHT22;5574;48.786;10.120;2024-03-06T04:23:30;6.10;99.90
11043;DHT22;5574;48.786;10.120;2024-03-06T04:25:57;6.10;99.90
11043;DHT22;5574;48.786;10.120;2024-03-06T04:28:24;6.10;99.90
11043;DHT22;5574;48.786;10.120;2024-03-06T04:30:50;6.10;99.90
11043;DHT22;5574;48.786;10.120;2024-03-06T04:33:17;6.00;99.90
11043;DHT22;5574;48.786;10.120;2024-03-06T04:35:43;6.00;99.90
11043;DHT22;5574;48.786;10.120;2024-03-06T04:38:11;6.00;99.90
11043;DHT22;5574;48.786;10.120;2024-03-06T04:40:39;6.00;99.90
11043;DHT22;5574;48.786;10.120;2024-03-06T04:43:06;5.90;99.90
11043;DHT22;5574;48.786;10.120;2024-03-06T04:45:33;5.90;99.90
11043;DHT22;5574;48.786;10.120;2024-03-06T04:48:00;5.90;99.90
11043;DHT22;5574;48.786;10.120;2024-03-06T04:50:26;5.90;99.90
11043;DHT22;5574;48.786;10.120;2024-03-06T04:52:53;5.90;99.90
11043;DHT22;5574;48.786;10.120;2024-03-06T04:55:22;5.90;99.90
11043;DHT22;5574;48.786;10.120;2024-03-06T04:57:51;5.90;99.90
11043;DHT22;5574;48.786;10.120;2024-03-06T05:00:18;6.00;99.90
11043;DHT22;5574;48.786;10.120;2024-03-06T05:02:45;5.90;99.90
11043;DHT22;5574;48.786;10.120;2024-03-06T05:05:11;5.90;99.90
11043;DHT22;5574;48.786;10.120;2024-03-06T05:07:38;5.90;99.90
11043;DHT22;5574;48.786;10.120;2024-03-06T05:10:06;5.90;99.90
11043;DHT22;5574;48.786;10.120;2024-03-06T05:12:35;5.80;99.90
11043;DHT22;5574;48.786;10.120;2024-03-06T05:15:02;5.80;99.90
11043;DHT22;5574;48.786;10.120;2024-03-06T05:17:29;5.90;99.90
11043;DHT22;5574;48.786;10.120;2024-03-06T05:19:55;5.90;99.90
11043;DHT22;5574;48.786;10.120;2024-03-06T05:22:22;5.90;99.90
11043;DHT22;5574;48.786;10.120;2024-03-06T05:24:49;5.90;99.90
11043;DHT22;5574;48.786;10.120;2024-03-06T05:27:16;5.90;99.90
11043;DHT22;5574;48.786;10.120;2024-03-06T05:29:44;5.80;99.90
11043;DHT22;5574;48.786;10.120;2024-03-06T05:32:11;5.90;99.90
11043;DHT22;5574;48.786;10.120;2024-03-06T05:34:38;5.90;99.90
11043;DHT22;5574;48.786;10.120;2024-03-06T05:37:05;5.90;99.90
11043;DHT22;5574;48.786;10.120;2024-03-06T05:39:32;5.90;99.90
11043;DHT22;5574;48.786;10.120;2024-03-06T05:42:00;5.90;99.90
11043;DHT22;5574;48.786;10.120;2024-03-06T05:44:28;5.90;99.90
11043;DHT22;5574;48.786;10.120;2024-03-06T05:46:57;5.90;99.90
11043;DHT22;5574;48.786;10.120;2024-03-06T05:49:24;5.80;99.90
11043;DHT22;5574;48.786;10.120;2024-03-06T05:51:50;5.90;99.90
11043;DHT22;5574;48.786;10.120;2024-03-06T05:54:19;5.90;99.90
11043;DHT22;5574;48.786;10.120;2024-03-06T05:56:47;5.90;99.90
11043;DHT22;5574;48.786;10.120;2024-03-06T05:59:14;5.90;99.90
11043;DHT22;5574;48.786;10.120;2024-03-06T06:01:40;5.90;99.90
11043;DHT22;5574;48.786;10.120;2024-03-06T06:04:09;5.90;99.90
11043;DHT22;5574;48.786;10.120;2024-03-06T06:06:36;5.90;99.90
11043;DHT22;5574;48.786;10.120;2024-03-06T06:09:03;5.90;99.90
11043;DHT22;5574;48.786;10.120;2024-03-06T06:11:31;5.90;99.90
11043;DHT22;5574;48.786;10.120;2024-03-06T06:13:58;5.90;99.90
11043;DHT22;5574;48.786;10.120;2024-03-06T06:16:25;5.80;99.90
11043;DHT22;5574;48.786;10.120;2024-03-06T06:18:52;5.90;99.90
11043;DHT22;5574;48.786;10.120;2024-03-06T06:21:20;5.80;99.90
11043;DHT22;5574;48.786;10.120;2024-03-06T06:23:46;5.90;99.90
11043;DHT22;5574;48.786;10.120;2024-03-06T06:26:14;5.90;99.90
11043;DHT22;5574;48.786;10.120;2024-03-06T06:28:41;5.90;99.90
11043;DHT22;5574;48.786;10.120;2024-03-06T06:31:07;5.90;99.90
11043;DHT22;5574;48.786;10.120;2024-03-06T06:33:34;5.90;99.90
11043;DHT22;5574;48.786;10.120;2024-03-06T06:36:01;5.90;99.90
11043;DHT22;5574;48.786;10.120;2024-03-06T06:38:29;6.00;99.90
11043;DHT22;5574;48.786;10.120;2024-03-06T06:40:56;6.00;99.90
11043;DHT22;5574;48.786;10.120;2024-03-06T06:43:23;5.90;99.90
11043;DHT22;5574;48.786;10.120;2024-03-06T06:45:49;6.00;99.90
11043;DHT22;5574;48.786;10.120;2024-03-06T06:48:16;6.00;99.90
11043;DHT22;5574;48.786;10.120;2024-03-06T06:50:44;6.00;99.90
11043;DHT22;5574;48.786;10.120;2024-03-06T06:53:13;6.00;99.90
11043;DHT22;5574;48.786;10.120;2024-03-06T06:55:41;6.00;99.90
11043;DHT22;5574;48.786;10.120;2024-03-06T06:58:08;6.00;99.90
11043;DHT22;5574;48.786;10.120;2024-03-06T07:00:35;6.00;99.90
11043;DHT22;5574;48.786;10.120;2024-03-06T07:03:03;6.10;99.90
11043;DHT22;5574;48.786;10.120;2024-03-06T07:05:29;6.00;99.90
11043;DHT22;5574;48.786;10.120;2024-03-06T07:07:56;6.00;99.90
11043;DHT22;5574;48.786;10.120;2024-03-06T07:10:23;6.00;99.90
11043;DHT22;5574;48.786;10.120;2024-03-06T07:12:51;6.00;99.90
11043;DHT22;5574;48.786;10.120;2024-03-06T07:15:18;6.00;99.90
11043;DHT22;5574;48.786;10.120;2024-03-06T07:17:44;6.00;99.90
11043;DHT22;5574;48.786;10.120;2024-03-06T07:20:11;6.00;99.90
11043;DHT22;5574;48.786;10.120;2024-03-06T07:22:39;6.00;99.90
11043;DHT22;5574;48.786;10.120;2024-03-06T07:25:06;6.00;99.90
11043;DHT22;5574;48.786;10.120;2024-03-06T07:27:33;6.10;99.90
11043;DHT22;5574;48.786;10.120;2024-03-06T07:30:01;6.00;99.90
11043;DHT22;5574;48.786;10.120;2024-03-06T07:32:28;6.00;99.90
11043;DHT22;5574;48.786;10.120;2024-03-06T07:34:54;6.10;99.90
11043;DHT22;5574;48.786;10.120;2024-03-06T07:37:21;6.10;99.90
11043;DHT22;5574;48.786;10.120;2024-03-06T07:39:48;6.10;99.90
11043;DHT22;5574;48.786;10.120;2024-03-06T07:42:15;6.10;99.90
11043;DHT22;5574;48.786;10.120;2024-03-06T07:44:43;6.10;99.90
11043;DHT22;5574;48.786;10.120;2024-03-06T07:47:11;6.10;99.90
11043;DHT22;5574;48.786;10.120;2024-03-06T07:49:40;6.00;99.90
11043;DHT22;5574;48.786;10.120;2024-03-06T07:52:06;6.10;99.90
11043;DHT22;5574;48.786;10.120;2024-03-06T07:54:33;6.10;99.90
11043;DHT22;5574;48.786;10.120;2024-03-06T07:56:59;6.00;99.90
11043;DHT22;5574;48.786;10.120;2024-03-06T07:59:26;6.00;99.90
11043;DHT22;5574;48.786;10.120;2024-03-06T08:01:53;6.00;99.90
11043;DHT22;5574;48.786;10.120;2024-03-06T08:04:22;6.00;99.90
11043;DHT22;5574;48.786;10.120;2024-03-06T08:06:49;5.90;99.90
11043;DHT22;5574;48.786;10.120;2024-03-06T08:09:16;6.00;99.90
11043;DHT22;5574;48.786;10.120;2024-03-06T08:11:44;6.00;99.90
11043;DHT22;5574;48.786;10.120;2024-03-06T08:14:11;6.00;99.90
11043;DHT22;5574;48.786;10.120;2024-03-06T08:16:40;6.10;99.90
11043;DHT22;5574;48.786;10.120;2024-03-06T08:19:06;6.10;99.90
11043;DHT22;5574;48.786;10.120;2024-03-06T08:21:34;6.10;99.90
11043;DHT22;5574;48.786;10.120;2024-03-06T08:24:01;6.10;99.90
11043;DHT22;5574;48.786;10.120;2024-03-06T08:26:28;6.10;99.90
11043;DHT22;5574;48.786;10.120;2024-03-06T08:28:54;6.10;99.90
11043;DHT22;5574;48.786;10.120;2024-03-06T08:31:21;6.10;99.90
11043;DHT22;5574;48.786;10.120;2024-03-06T08:33:48;6.10;99.90
11043;DHT22;5574;48.786;10.120;2024-03-06T08:36:14;6.20;99.90
11043;DHT22;5574;48.786;10.120;2024-03-06T08:38:42;6.10;99.90
11043;DHT22;5574;48.786;10.120;2024-03-06T08:41:09;6.10;99.90
11043;DHT22;5574;48.786;10.120;2024-03-06T08:43:36;6.10;99.90
11043;DHT22;5574;48.786;10.120;2024-03-06T08:46:03;6.10;99.90
11043;DHT22;5574;48.786;10.120;2024-03-06T08:48:30;6.10;99.90
11043;DHT22;5574;48.786;10.120;2024-03-06T08:50:57;6.10;99.90
11043;DHT22;5574;48.786;10.120;2024-03-06T08:53:24;6.20;99.90
11043;DHT22;5574;48.786;10.120;2024-03-06T08:55:52;6.20;99.90
11043;DHT22;5574;48.786;10.120;2024-03-06T08:58:18;6.20;99.90
11043;DHT22;5574;48.786;10.120;2024-03-06T09:00:46;6.20;99.90
11043;DHT22;5574;48.786;10.120;2024-03-06T09:03:14;6.20;99.90
11043;DHT22;5574;48.786;10.120;2024-03-06T09:05:41;6.20;99.90
11043;DHT22;5574;48.786;10.120;2024-03-06T09:08:07;6.20;99.90
11043;DHT22;5574;48.786;10.120;2024-03-06T09:10:35;6.20;99.90
11043;DHT22;5574;48.786;10.120;2024-03-06T09:13:03;6.20;99.90
11043;DHT22;5574;48.786;10.120;2024-03-06T09:15:30;6.20;99.90
11043;DHT22;5574;48.786;10.120;2024-03-06T09:17:57;6.20;99.90
11043;DHT22;5574;48.786;10.120;2024-03-06T09:20:23;6.20;99.90
11043;DHT22;5574;48.786;10.120;2024-03-06T09:22:50;6.20;99.90
11043;DHT22;5574;48.786;10.120;2024-03-06T09:25:19;6.20;99.90
11043;DHT22;5574;48.786;10.120;2024-03-06T09:27:46;6.30;99.90
11043;DHT22;5574;48.786;10.120;2024-03-06T09:30:14;6.30;99.90
11043;DHT22;5574;48.786;10.120;2024-03-06T09:32:42;6.30;99.90
11043;DHT22;5574;48.786;10.120;2024-03-06T09:35:09;6.30;99.90
11043;DHT22;5574;48.786;10.120;2024-03-06T09:37:36;6.30;99.90
11043;DHT22;5574;48.786;10.120;2024-03-06T09:40:03;6.40;99.90
11043;DHT22;5574;48.786;10.120;2024-03-06T09:42:33;6.40;99.90
11043;DHT22;5574;48.786;10.120;2024-03-06T09:45:00;6.40;99.90
11043;DHT22;5574;48.786;10.120;2024-03-06T09:47:32;6.40;99.90
11043;DHT22;5574;48.786;10.120;2024-03-06T09:50:01;6.50;99.90
11043;DHT22;5574;48.786;10.120;2024-03-06T09:52:29;6.50;99.90
11043;DHT22;5574;48.786;10.120;2024-03-06T09:54:57;6.60;99.90
11043;DHT22;5574;48.786;10.120;2024-03-06T09:57:23;6.60;99.90
11043;DHT22;5574;48.786;10.120;2024-03-06T09:59:50;6.60;99.90
11043;DHT22;5574;48.786;10.120;2024-03-06T10:02:26;6.60;99.90
11043;DHT22;5574;48.786;10.120;2024-03-06T10:04:56;6.60;99.90
11043;DHT22;5574;48.786;10.120;2024-03-06T10:07:23;6.60;99.90
11043;DHT22;5574;48.786;10.120;2024-03-06T10:09:52;6.60;99.90
11043;DHT22;5574;48.786;10.120;2024-03-06T10:12:18;6.60;99.90
11043;DHT22;5574;48.786;10.120;2024-03-06T10:14:51;6.70;99.90
11043;DHT22;5574;48.786;10.120;2024-03-06T10:17:19;6.70;99.90
11043;DHT22;5574;48.786;10.120;2024-03-06T10:19:48;6.70;99.90
11043;DHT22;5574;48.786;10.120;2024-03-06T10:22:18;6.70;99.90
11043;DHT22;5574;48.786;10.120;2024-03-06T10:24:45;6.80;99.90
11043;DHT22;5574;48.786;10.120;2024-03-06T10:27:15;6.80;99.90
11043;DHT22;5574;48.786;10.120;2024-03-06T10:29:42;6.80;99.90
11043;DHT22;5574;48.786;10.120;2024-03-06T10:32:09;6.80;99.90
11043;DHT22;5574;48.786;10.120;2024-03-06T10:34:37;6.80;99.90
11043;DHT22;5574;48.786;10.120;2024-03-06T10:37:04;6.90;99.90
11043;DHT22;5574;48.786;10.120;2024-03-06T10:39:33;6.90;99.90
11043;DHT22;5574;48.786;10.120;2024-03-06T10:42:02;6.90;99.90
11043;DHT22;5574;48.786;10.120;2024-03-06T10:44:32;6.90;99.90
11043;DHT22;5574;48.786;10.120;2024-03-06T10:47:01;6.90;99.90
11043;DHT22;5574;48.786;10.120;2024-03-06T10:49:29;6.80;99.90
11043;DHT22;5574;48.786;10.120;2024-03-06T10:51:58;6.80;99.90
11043;DHT22;5574;48.786;10.120;2024-03-06T10:54:27;6.80;99.90
11043;DHT22;5574;48.786;10.120;2024-03-06T10:56:56;6.80;99.90
11043;DHT22;5574;48.786;10.120;2024-03-06T10:59:25;6.80;99.90
11043;DHT22;5574;48.786;10.120;2024-03-06T11:01:53;6.80;99.90
11043;DHT22;5574;48.786;10.120;2024-03-06T11:04:22;6.90;99.90
11043;DHT22;5574;48.786;10.120;2024-03-06T11:06:49;6.90;99.90
11043;DHT22;5574;48.786;10.120;2024-03-06T11:09:16;6.90;99.90
11043;DHT22;5574;48.786;10.120;2024-03-06T11:11:53;6.80;99.90
11043;DHT22;5574;48.786;10.120;2024-03-06T11:14:23;6.80;99.90
11043;DHT22;5574;48.786;10.120;2024-03-06T11:17:02;6.80;99.90
11043;DHT22;5574;48.786;10.120;2024-03-06T11:19:30;6.80;99.90
11043;DHT22;5574;48.786;10.120;2024-03-06T11:21:57;6.80;99.90
11043;DHT22;5574;48.786;10.120;2024-03-06T11:24:32;6.80;99.90
11043;DHT22;5574;48.786;10.120;2024-03-06T11:27:00;6.80;99.90
11043;DHT22;5574;48.786;10.120;2024-03-06T11:29:32;6.80;99.90
11043;DHT22;5574;48.786;10.120;2024-03-06T11:32:16;6.80;99.90
11043;DHT22;5574;48.786;10.120;2024-03-06T11:34:44;6.80;99.90
11043;DHT22;5574;48.786;10.120;2024-03-06T11:37:10;6.80;99.90
11043;DHT22;5574;48.786;10.120;2024-03-06T11:39:38;6.90;99.90
11043;DHT22;5574;48.786;10.120;2024-03-06T11:42:06;6.80;99.90
11043;DHT22;5574;48.786;10.120;2024-03-06T11:44:35;6.80;99.90
11043;DHT22;5574;48.786;10.120;2024-03-06T11:47:03;6.80;99.90
11043;DHT22;5574;48.786;10.120;2024-03-06T11:49:31;6.90;99.90
11043;DHT22;5574;48.786;10.120;2024-03-06T11:52:00;6.90;99.90
11043;DHT22;5574;48.786;10.120;2024-03-06T11:54:27;6.90;99.90
11043;DHT22;5574;48.786;10.120;2024-03-06T11:56:55;6.90;99.90
11043;DHT22;5574;48.786;10.120;2024-03-06T11:59:22;6.90;99.90
11043;DHT22;5574;48.786;10.120;2024-03-06T12:01:51;6.90;99.90
11043;DHT22;5574;48.786;10.120;2024-03-06T12:04:19;6.90;99.90
11043;DHT22;5574;48.786;10.120;2024-03-06T12:06:45;6.90;99.90
11043;DHT22;5574;48.786;10.120;2024-03-06T12:09:13;6.90;99.90
11043;DHT22;5574;48.786;10.120;2024-03-06T12:11:40;6.90;99.90
11043;DHT22;5574;48.786;10.120;2024-03-06T12:14:12;6.90;99.90
11043;DHT22;5574;48.786;10.120;2024-03-06T12:16:39;7.00;99.90
11043;DHT22;5574;48.786;10.120;2024-03-06T12:19:07;7.00;99.90
11043;DHT22;5574;48.786;10.120;2024-03-06T12:21:35;7.00;99.90
11043;DHT22;5574;48.786;10.120;2024-03-06T12:24:03;7.00;99.90
11043;DHT22;5574;48.786;10.120;2024-03-06T12:26:30;7.00;99.90
11043;DHT22;5574;48.786;10.120;2024-03-06T12:29:07;7.00;99.90
11043;DHT22;5574;48.786;10.120;2024-03-06T12:31:36;7.00;99.90
11043;DHT22;5574;48.786;10.120;2024-03-06T12:34:03;7.00;99.90
11043;DHT22;5574;48.786;10.120;2024-03-06T12:36:31;7.00;99.90
11043;DHT22;5574;48.786;10.120;2024-03-06T12:38:59;7.00;99.90
11043;DHT22;5574;48.786;10.120;2024-03-06T12:41:27;7.00;99.90
11043;DHT22;5574;48.786;10.120;2024-03-06T12:43:55;7.00;99.90
11043;DHT22;5574;48.786;10.120;2024-03-06T12:46:22;7.00;99.90
11043;DHT22;5574;48.786;10.120;2024-03-06T12:48:50;7.00;99.90
11043;DHT22;5574;48.786;10.120;2024-03-06T12:51:17;7.00;99.90
11043;DHT22;5574;48.786;10.120;2024-03-06T12:53:46;7.00;99.90
11043;DHT22;5574;48.786;10.120;2024-03-06T12:56:13;7.00;99.90
11043;DHT22;5574;48.786;10.120;2024-03-06T12:58:40;7.00;99.90
11043;DHT22;5574;48.786;10.120;2024-03-06T13:01:07;7.10;99.90
11043;DHT22;5574;48.786;10.120;2024-03-06T13:03:34;7.10;99.90
11043;DHT22;5574;48.786;10.120;2024-03-06T13:06:02;7.10;99.90
11043;DHT22;5574;48.786;10.120;2024-03-06T13:08:30;7.10;99.90
11043;DHT22;5574;48.786;10.120;2024-03-06T13:10:59;7.10;99.90
11043;DHT22;5574;48.786;10.120;2024-03-06T13:13:26;7.20;99.90
11043;DHT22;5574;48.786;10.120;2024-03-06T13:15:55;7.20;99.90
11043;DHT22;5574;48.786;10.120;2024-03-06T13:18:22;7.20;99.90
11043;DHT22;5574;48.786;10.120;2024-03-06T13:20:49;7.30;99.90
11043;DHT22;5574;48.786;10.120;2024-03-06T13:23:16;7.30;99.90
11043;DHT22;5574;48.786;10.120;2024-03-06T13:25:43;7.30;99.90
11043;DHT22;5574;48.786;10.120;2024-03-06T13:28:14;7.30;99.90
11043;DHT22;5574;48.786;10.120;2024-03-06T13:30:40;7.30;99.90
11043;DHT22;5574;48.786;10.120;2024-03-06T13:33:07;7.40;99.90
11043;DHT22;5574;48.786;10.120;2024-03-06T13:35:34;7.40;99.90
11043;DHT22;5574;48.786;10.120;2024-03-06T13:38:01;7.50;99.90
11043;DHT22;5574;48.786;10.120;2024-03-06T13:40:28;7.50;99.90
11043;DHT22;5574;48.786;10.120;2024-03-06T13:42:55;7.60;99.90
11043;DHT22;5574;48.786;10.120;2024-03-06T13:45:23;7.60;99.90
11043;DHT22;5574;48.786;10.120;2024-03-06T13:47:50;7.60;99.90
11043;DHT22;5574;48.786;10.120;2024-03-06T13:50:17;7.60;99.90
11043;DHT22;5574;48.786;10.120;2024-03-06T13:52:43;7.60;99.90
11043;DHT22;5574;48.786;10.120;2024-03-06T13:55:10;7.60;99.90
11043;DHT22;5574;48.786;10.120;2024-03-06T13:57:39;7.60;99.90
11043;DHT22;5574;48.786;10.120;2024-03-06T14:00:07;7.60;99.90
11043;DHT22;5574;48.786;10.120;2024-03-06T14:02:39;7.60;99.90
11043;DHT22;5574;48.786;10.120;2024-03-06T14:05:06;7.60;99.90
11043;DHT22;5574;48.786;10.120;2024-03-06T14:07:33;7.60;99.90
11043;DHT22;5574;48.786;10.120;2024-03-06T14:10:00;7.60;99.90
11043;DHT22;5574;48.786;10.120;2024-03-06T14:12:27;7.60;99.90
11043;DHT22;5574;48.786;10.120;2024-03-06T14:14:54;7.70;99.90
11043;DHT22;5574;48.786;10.120;2024-03-06T14:17:20;7.70;99.90
11043;DHT22;5574;48.786;10.120;2024-03-06T14:19:48;7.80;99.90
11043;DHT22;5574;48.786;10.120;2024-03-06T14:22:15;7.80;99.90
11043;DHT22;5574;48.786;10.120;2024-03-06T14:24:42;7.80;99.90
11043;DHT22;5574;48.786;10.120;2024-03-06T14:27:09;7.90;99.90
11043;DHT22;5574;48.786;10.120;2024-03-06T14:29:35;7.90;99.90
11043;DHT22;5574;48.786;10.120;2024-03-06T14:32:02;7.90;99.90
11043;DHT22;5574;48.786;10.120;2024-03-06T14:34:29;7.90;99.90
11043;DHT22;5574;48.786;10.120;2024-03-06T14:36:57;7.90;99.90
11043;DHT22;5574;48.786;10.120;2024-03-06T14:39:24;7.90;99.90
11043;DHT22;5574;48.786;10.120;2024-03-06T14:41:51;7.90;99.90
11043;DHT22;5574;48.786;10.120;2024-03-06T14:44:18;7.90;99.90
11043;DHT22;5574;48.786;10.120;2024-03-06T14:46:46;8.00;99.90
11043;DHT22;5574;48.786;10.120;2024-03-06T14:49:12;7.90;99.90
11043;DHT22;5574;48.786;10.120;2024-03-06T14:51:41;8.00;99.90
11043;DHT22;5574;48.786;10.120;2024-03-06T14:54:10;8.10;99.90
11043;DHT22;5574;48.786;10.120;2024-03-06T14:56:36;8.10;99.90
11043;DHT22;5574;48.786;10.120;2024-03-06T14:59:03;8.10;99.90
11043;DHT22;5574;48.786;10.120;2024-03-06T15:01:30;8.10;99.90
11043;DHT22;5574;48.786;10.120;2024-03-06T15:03:57;8.00;99.90
11043;DHT22;5574;48.786;10.120;2024-03-06T15:06:24;8.00;99.90
11043;DHT22;5574;48.786;10.120;2024-03-06T15:08:51;8.00;99.90
11043;DHT22;5574;48.786;10.120;2024-03-06T15:11:19;8.00;99.90
11043;DHT22;5574;48.786;10.120;2024-03-06T15:13:47;8.00;99.90
11043;DHT22;5574;48.786;10.120;2024-03-06T15:16:14;8.00;99.90
11043;DHT22;5574;48.786;10.120;2024-03-06T15:18:41;8.00;99.90
11043;DHT22;5574;48.786;10.120;2024-03-06T15:21:09;8.00;99.90
11043;DHT22;5574;48.786;10.120;2024-03-06T15:23:35;8.00;99.90
11043;DHT22;5574;48.786;10.120;2024-03-06T15:26:02;8.00;99.90
11043;DHT22;5574;48.786;10.120;2024-03-06T15:28:31;8.00;99.90
11043;DHT22;5574;48.786;10.120;2024-03-06T15:30:58;8.00;99.90
11043;DHT22;5574;48.786;10.120;2024-03-06T15:33:25;8.00;99.90
11043;DHT22;5574;48.786;10.120;2024-03-06T15:35:51;7.90;99.90
11043;DHT22;5574;48.786;10.120;2024-03-06T15:38:18;7.90;99.90
11043;DHT22;5574;48.786;10.120;2024-03-06T15:40:45;7.90;99.90
11043;DHT22;5574;48.786;10.120;2024-03-06T15:43:15;7.80;99.90
11043;DHT22;5574;48.786;10.120;2024-03-06T15:45:44;7.80;99.90